createdAt,value
2019-05-17T00:01:51.548Z,1.67
2019-05-17T00:04:21.772Z,1.77
2019-05-17T00:06:52.098Z,1.80
2019-05-17T00:09:22.362Z,2.33
2019-05-17T00:11:52.796Z,1.83
2019-05-17T00:14:23.107Z,1.60
2019-05-17T00:16:53.316Z,2.30
2019-05-17T00:19:23.535Z,1.70
2019-05-17T00:21:53.742Z,1.90
2019-05-17T00:24:26.353Z,1.90
2019-05-17T00:26:58.451Z,2.30
2019-05-17T00:29:28.517Z,2.30
2019-05-17T00:31:58.773Z,1.80
2019-05-17T00:34:29.069Z,2.10
2019-05-17T00:36:59.266Z,1.73
2019-05-17T00:39:29.612Z,1.93
2019-05-17T00:41:59.821Z,2.10
2019-05-17T00:44:30.142Z,2.30
2019-05-17T00:47:00.399Z,2.40
2019-05-17T00:49:30.705Z,2.03
2019-05-17T00:52:00.892Z,2.03
2019-05-17T00:54:31.122Z,2.07
2019-05-17T00:57:01.439Z,2.37
2019-05-17T00:59:31.663Z,2.00
2019-05-17T01:02:01.878Z,2.10
2019-05-17T01:04:32.091Z,2.33
2019-05-17T01:07:02.368Z,2.50
2019-05-17T01:09:32.594Z,2.60
2019-05-17T01:12:02.805Z,2.33
2019-05-17T01:14:33.042Z,2.10
2019-05-17T01:17:03.381Z,2.40
2019-05-17T01:19:33.674Z,2.40
2019-05-17T01:22:03.887Z,2.00
2019-05-17T01:24:34.127Z,2.40
2019-05-17T01:27:06.398Z,2.63
2019-05-17T01:29:36.538Z,2.50
2019-05-17T01:32:06.974Z,2.47
2019-05-17T01:34:37.764Z,2.40
2019-05-17T01:37:08.017Z,2.27
2019-05-17T01:39:38.325Z,2.53
2019-05-17T01:42:08.633Z,2.20
2019-05-17T01:44:38.802Z,2.17
2019-05-17T01:47:09.575Z,2.57
2019-05-17T01:49:39.773Z,2.50
2019-05-17T01:52:09.999Z,2.60
2019-05-17T01:54:40.207Z,2.40
2019-05-17T01:57:10.577Z,2.77
2019-05-17T01:59:40.787Z,2.47
2019-05-17T02:02:12.737Z,2.60
2019-05-17T02:04:42.951Z,2.67
2019-05-17T02:07:13.188Z,2.60
2019-05-17T02:09:43.379Z,2.50
2019-05-17T02:12:13.604Z,2.50
2019-05-17T02:14:43.804Z,2.57
2019-05-17T02:17:14.097Z,2.40
2019-05-17T02:19:46.449Z,2.33
2019-05-17T02:22:16.865Z,2.23
2019-05-17T02:24:47.236Z,2.00
2019-05-17T02:27:17.453Z,2.00
2019-05-17T02:29:47.667Z,2.00
2019-05-17T02:32:17.891Z,1.90
2019-05-17T02:34:48.111Z,1.70
2019-05-17T02:37:18.306Z,1.60
2019-05-17T02:39:58.176Z,2.00
2019-05-17T02:42:22.423Z,2.13
2019-05-17T02:44:53.169Z,2.17
2019-05-17T02:47:23.655Z,2.30
2019-05-17T02:49:53.850Z,2.30
2019-05-17T02:52:24.186Z,2.50
2019-05-17T02:54:54.396Z,2.40
2019-05-17T02:57:24.646Z,1.70
2019-05-17T02:59:54.852Z,1.83
2019-05-17T03:02:28.084Z,1.77
2019-05-17T03:04:56.963Z,1.70
2019-05-17T03:07:27.290Z,1.80
2019-05-17T03:10:12.327Z,1.50
2019-05-17T03:12:32.653Z,1.40
2019-05-17T03:15:04.128Z,1.70
2019-05-17T03:17:34.121Z,1.80
2019-05-17T03:20:05.304Z,1.27
2019-05-17T03:22:35.510Z,1.70
2019-05-17T03:25:06.187Z,2.00
2019-05-17T03:27:36.430Z,1.90
2019-05-17T03:30:08.085Z,1.73
2019-05-17T03:32:38.302Z,2.30
2019-05-17T03:35:08.571Z,2.57
2019-05-17T03:37:38.819Z,1.97
2019-05-17T03:40:27.460Z,1.93
2019-05-17T03:42:42.822Z,1.80
2019-05-17T03:45:14.650Z,2.00
2019-05-17T03:47:45.073Z,1.60
2019-05-17T03:50:15.427Z,1.87
2019-05-17T03:52:45.654Z,1.77
2019-05-17T03:55:16.298Z,1.90
2019-05-17T03:57:46.565Z,1.90
2019-05-17T04:00:17.913Z,2.17
2019-05-17T04:02:48.188Z,2.30
2019-05-17T04:05:18.472Z,2.10
2019-05-17T04:07:48.750Z,2.40
2019-05-17T04:10:19.043Z,2.17
2019-05-17T04:12:49.237Z,2.23
2019-05-17T04:15:19.459Z,2.30
2019-05-17T04:17:52.794Z,2.33
2019-05-17T04:20:22.472Z,2.37
2019-05-17T04:22:53.334Z,2.20
2019-05-17T04:25:23.630Z,2.10
2019-05-17T04:27:53.902Z,2.40
2019-05-17T04:30:25.271Z,2.23
2019-05-17T04:32:55.472Z,2.30
2019-05-17T04:35:25.702Z,2.53
2019-05-17T04:37:56.368Z,2.80
2019-05-17T04:40:26.577Z,2.77
2019-05-17T04:42:56.779Z,2.50
2019-05-17T04:45:26.994Z,2.10
2019-05-17T04:47:57.251Z,2.20
2019-05-17T04:50:28.576Z,2.30
2019-05-17T04:52:58.793Z,2.57
2019-05-17T04:55:29.034Z,2.20
2019-05-17T04:57:59.233Z,2.70
2019-05-17T05:00:29.458Z,2.90
2019-05-17T05:02:59.771Z,2.80
2019-05-17T05:05:32.788Z,2.87
2019-05-17T05:08:03.056Z,3.37
2019-05-17T05:10:38.088Z,3.00
2019-05-17T05:13:05.634Z,3.33
2019-05-17T05:15:44.394Z,3.90
2019-05-17T05:18:14.869Z,3.60
2019-05-17T05:20:45.087Z,4.37
2019-05-17T05:23:15.631Z,4.10
2019-05-17T05:25:45.931Z,3.87
2019-05-17T05:28:16.204Z,4.50
2019-05-17T05:30:46.799Z,4.67
2019-05-17T05:33:16.992Z,5.07
2019-05-17T05:35:47.301Z,4.73
2019-05-17T05:38:17.599Z,5.70
2019-05-17T05:40:47.844Z,6.00
2019-05-17T05:43:18.039Z,5.53
2019-05-17T05:45:48.267Z,6.00
2019-05-17T05:48:18.464Z,6.77
2019-05-17T05:50:48.693Z,6.03
2019-05-17T05:53:18.913Z,7.33
2019-05-17T05:55:51.653Z,7.43
2019-05-17T05:58:24.070Z,6.60
2019-05-17T06:00:53.414Z,6.87
2019-05-17T06:03:23.646Z,7.70
2019-05-17T06:05:53.858Z,7.17
2019-05-17T06:08:24.103Z,6.80
2019-05-17T06:10:54.300Z,7.23
2019-05-17T06:13:24.527Z,8.03
2019-05-17T06:15:54.827Z,7.67
2019-05-17T06:18:25.109Z,8.10
2019-05-17T06:20:55.331Z,7.17
2019-05-17T06:23:25.600Z,7.37
2019-05-17T06:25:55.888Z,7.40
2019-05-17T06:28:26.594Z,7.50
2019-05-17T06:30:56.939Z,7.43
2019-05-17T06:33:31.082Z,7.70
2019-05-17T06:36:02.351Z,7.40
2019-05-17T06:38:32.909Z,8.40
2019-05-17T06:41:03.070Z,7.87
2019-05-17T06:43:33.286Z,6.87
2019-05-17T06:46:03.531Z,7.23
2019-05-17T06:48:33.733Z,7.83
2019-05-17T06:51:03.959Z,7.97
2019-05-17T06:53:34.231Z,7.93
2019-05-17T06:56:04.597Z,8.83
2019-05-17T06:58:34.879Z,7.77
2019-05-17T07:01:05.169Z,8.33
2019-05-17T07:03:35.450Z,8.87
2019-05-17T07:06:07.341Z,8.60
2019-05-17T07:08:40.093Z,8.30
2019-05-17T07:11:09.883Z,7.43
2019-05-17T07:13:40.095Z,8.53
2019-05-17T07:16:10.377Z,7.87
2019-05-17T07:18:40.659Z,8.23
2019-05-17T07:21:10.911Z,8.50
2019-05-17T07:23:41.516Z,8.57
2019-05-17T07:26:12.143Z,7.77
2019-05-17T07:28:42.485Z,8.23
2019-05-17T07:31:12.673Z,7.63
2019-05-17T07:33:42.951Z,7.57
2019-05-17T07:36:13.220Z,8.27
2019-05-17T07:38:43.440Z,6.43
2019-05-17T07:41:13.640Z,6.57
2019-05-17T07:43:43.857Z,5.73
2019-05-17T07:46:14.060Z,6.47
2019-05-17T07:48:44.273Z,6.37
2019-05-17T07:51:14.454Z,6.13
2019-05-17T07:53:44.672Z,6.40
2019-05-17T07:56:14.966Z,6.10
2019-05-17T07:58:46.143Z,5.70
2019-05-17T08:01:16.386Z,4.97
2019-05-17T08:03:46.606Z,4.77
2019-05-17T08:06:16.818Z,4.63
2019-05-17T08:08:49.923Z,4.50
2019-05-17T08:11:19.708Z,3.90
2019-05-17T08:13:50.594Z,4.07
2019-05-17T08:16:20.927Z,4.37
2019-05-17T08:18:51.228Z,3.97
2019-05-17T08:21:21.440Z,3.87
2019-05-17T08:23:51.647Z,4.40
2019-05-17T08:26:21.890Z,4.43
2019-05-17T08:28:52.084Z,4.40
2019-05-17T08:31:22.308Z,4.60
2019-05-17T08:33:52.550Z,4.23
2019-05-17T08:36:22.881Z,3.60
2019-05-17T08:38:53.123Z,3.93
2019-05-17T08:41:23.400Z,3.80
2019-05-17T08:43:53.685Z,4.00
2019-05-17T08:46:24.027Z,3.33
2019-05-17T08:48:54.324Z,3.23
2019-05-17T08:51:24.746Z,3.40
2019-05-17T08:53:54.982Z,2.90
2019-05-17T08:56:25.217Z,2.67
2019-05-17T08:58:55.495Z,3.10
2019-05-17T09:01:26.525Z,2.87
2019-05-17T09:03:56.733Z,2.73
2019-05-17T09:06:29.176Z,2.63
2019-05-17T09:09:00.852Z,2.80
2019-05-17T09:11:32.318Z,2.70
2019-05-17T09:14:02.910Z,2.70
2019-05-17T09:16:34.274Z,2.37
2019-05-17T09:19:04.502Z,3.10
2019-05-17T09:21:39.738Z,2.70
2019-05-17T09:24:10.399Z,2.37
2019-05-17T09:26:41.055Z,2.40
2019-05-17T09:29:11.268Z,2.53
2019-05-17T09:31:42.619Z,2.10
2019-05-17T09:34:12.837Z,2.03
2019-05-17T09:36:43.039Z,2.57
2019-05-17T09:39:13.272Z,2.10
2019-05-17T09:41:43.568Z,2.00
2019-05-17T09:44:16.400Z,2.03
2019-05-17T09:46:45.797Z,2.57
2019-05-17T09:49:16.075Z,2.70
2019-05-17T09:51:46.304Z,2.17
2019-05-17T09:54:16.519Z,2.30
2019-05-17T09:56:46.813Z,2.30
2019-05-17T09:59:17.091Z,2.30
2019-05-17T10:01:49.431Z,2.37
2019-05-17T10:04:19.888Z,2.30
2019-05-17T10:06:51.304Z,2.23
2019-05-17T10:09:22.365Z,2.47
2019-05-17T10:11:52.995Z,2.47
2019-05-17T10:14:28.144Z,2.10
2019-05-17T10:16:55.246Z,2.10
2019-05-17T10:19:25.519Z,2.00
2019-05-17T10:21:55.843Z,2.00
2019-05-17T10:24:36.032Z,2.50
2019-05-17T10:26:59.562Z,2.17
2019-05-17T10:29:30.082Z,2.30
2019-05-17T10:32:00.350Z,2.50
2019-05-17T10:34:30.550Z,2.60
2019-05-17T10:37:00.807Z,2.33
2019-05-17T10:39:31.020Z,2.20
2019-05-17T10:42:01.244Z,2.47
2019-05-17T10:44:43.151Z,2.50
2019-05-17T10:47:03.429Z,2.40
2019-05-17T10:49:33.639Z,2.17
2019-05-17T10:52:03.926Z,1.90
2019-05-17T10:54:34.138Z,2.20
2019-05-17T10:57:04.511Z,2.10
2019-05-17T10:59:34.935Z,2.10
2019-05-17T11:02:05.135Z,1.70
2019-05-17T11:04:35.432Z,2.00
2019-05-17T11:07:06.872Z,2.10
2019-05-17T11:09:40.160Z,2.10
2019-05-17T11:12:09.543Z,1.90
2019-05-17T11:14:52.278Z,2.00
2019-05-17T11:17:11.662Z,2.03
2019-05-17T11:19:41.895Z,2.60
2019-05-17T11:22:12.219Z,2.63
2019-05-17T11:24:42.508Z,1.97
2019-05-17T11:27:13.615Z,2.23
2019-05-17T11:29:43.827Z,2.43
2019-05-17T11:32:14.267Z,1.87
2019-05-17T11:34:44.573Z,1.90
2019-05-17T11:37:14.922Z,1.30
2019-05-17T11:39:45.151Z,1.60
2019-05-17T11:42:15.374Z,1.33
2019-05-17T11:44:45.746Z,1.33
2019-05-17T11:47:16.044Z,1.70
2019-05-17T11:49:46.271Z,1.60
2019-05-17T11:52:16.620Z,1.50
2019-05-17T11:54:46.835Z,1.40
2019-05-17T11:57:17.092Z,1.33
2019-05-17T11:59:47.289Z,1.30
2019-05-17T12:02:21.391Z,1.53
2019-05-17T12:04:50.524Z,1.20
2019-05-17T12:07:20.858Z,1.10
2019-05-17T12:09:51.052Z,1.57
2019-05-17T12:12:21.270Z,1.50
2019-05-17T12:14:52.648Z,1.60
2019-05-17T12:17:22.873Z,1.43
2019-05-17T12:19:53.068Z,1.67
2019-05-17T12:22:23.377Z,1.67
2019-05-17T12:24:53.572Z,1.50
2019-05-17T12:27:23.823Z,1.60
2019-05-17T12:29:54.029Z,1.63
2019-05-17T12:32:24.248Z,1.47
2019-05-17T12:34:54.446Z,1.67
2019-05-17T12:37:24.703Z,1.40
2019-05-17T12:39:54.967Z,1.70
2019-05-17T12:42:25.198Z,1.83
2019-05-17T12:44:55.423Z,1.97
2019-05-17T12:47:25.639Z,1.80
2019-05-17T12:49:55.935Z,1.83
2019-05-17T12:52:26.182Z,2.23
2019-05-17T12:54:56.391Z,2.07
2019-05-17T12:57:26.621Z,1.80
2019-05-17T12:59:56.849Z,1.60
2019-05-17T13:02:28.040Z,1.70
2019-05-17T13:04:58.305Z,2.13
2019-05-17T13:07:28.518Z,2.57
2019-05-17T13:09:58.746Z,2.00
2019-05-17T13:12:28.953Z,3.10
2019-05-17T13:14:59.195Z,3.10
2019-05-17T13:17:29.411Z,2.83
2019-05-17T13:19:59.712Z,2.90
2019-05-17T13:22:29.904Z,2.83
2019-05-17T13:25:00.135Z,2.77
2019-05-17T13:27:30.420Z,3.03
2019-05-17T13:30:00.663Z,3.07
2019-05-17T13:32:30.941Z,2.50
2019-05-17T13:35:01.158Z,2.87
2019-05-17T13:37:31.436Z,2.20
2019-05-17T13:40:02.902Z,3.67
2019-05-17T13:42:33.291Z,3.20
2019-05-17T13:45:04.095Z,3.87
2019-05-17T13:47:34.822Z,3.97
2019-05-17T13:50:06.415Z,3.23
2019-05-17T13:52:37.029Z,3.20
2019-05-17T13:55:07.439Z,3.40
2019-05-17T13:57:37.739Z,2.87
2019-05-17T14:00:08.738Z,3.40
2019-05-17T14:02:39.279Z,2.80
2019-05-17T14:05:11.081Z,2.93
2019-05-17T14:07:41.455Z,2.93
2019-05-17T14:10:26.094Z,2.63
2019-05-17T14:12:45.083Z,3.53
2019-05-17T14:15:15.317Z,3.10
2019-05-17T14:17:45.588Z,2.70
2019-05-17T14:20:15.816Z,2.87
2019-05-17T14:22:46.011Z,2.57
2019-05-17T14:25:16.336Z,2.70
2019-05-17T14:27:46.699Z,2.70
2019-05-17T14:30:17.040Z,2.80
2019-05-17T14:32:47.370Z,2.60
2019-05-17T14:35:17.587Z,2.90
2019-05-17T14:37:47.805Z,2.60
2019-05-17T14:40:18.036Z,2.43
2019-05-17T14:42:48.232Z,2.70
2019-05-17T14:45:18.475Z,3.03
2019-05-17T14:47:48.662Z,2.80
2019-05-17T14:50:18.906Z,2.90
2019-05-17T14:52:49.126Z,2.47
2019-05-17T14:55:19.316Z,2.67
2019-05-17T14:57:49.551Z,2.27
2019-05-17T15:00:21.390Z,2.40
2019-05-17T15:02:51.622Z,2.10
2019-05-17T15:05:21.836Z,2.03
2019-05-17T15:07:52.156Z,2.53
2019-05-17T15:10:22.365Z,2.37
2019-05-17T15:12:52.601Z,2.50
2019-05-17T15:15:26.334Z,2.57
2019-05-17T15:17:54.791Z,2.23
2019-05-17T15:20:25.020Z,2.70
2019-05-17T15:22:55.219Z,2.60
2019-05-17T15:25:25.477Z,2.23
2019-05-17T15:27:55.702Z,2.43
2019-05-17T15:30:25.888Z,2.50
2019-05-17T15:32:56.119Z,2.57
2019-05-17T15:35:27.387Z,2.57
2019-05-17T15:37:57.731Z,2.80
2019-05-17T15:40:27.930Z,3.07
2019-05-17T15:42:58.213Z,2.90
2019-05-17T15:45:28.500Z,3.20
2019-05-17T15:47:58.811Z,2.93
2019-05-17T15:50:29.121Z,2.67
2019-05-17T15:53:00.457Z,2.73
2019-05-17T15:55:30.700Z,2.77
2019-05-17T15:58:00.960Z,2.40
2019-05-17T16:00:31.147Z,2.90
2019-05-17T16:03:01.481Z,2.60
2019-05-17T16:05:31.758Z,2.50
2019-05-17T16:08:02.132Z,2.53
2019-05-17T16:10:32.410Z,2.60
2019-05-17T16:13:03.622Z,2.60
2019-05-17T16:15:34.025Z,2.70
2019-05-17T16:18:04.396Z,2.20
2019-05-17T16:20:34.928Z,2.33
2019-05-17T16:23:05.230Z,2.17
2019-05-17T16:25:35.428Z,2.83
2019-05-17T16:28:05.672Z,2.57
2019-05-17T16:30:36.045Z,2.77
2019-05-17T16:33:06.440Z,2.67
2019-05-17T16:35:37.712Z,3.63
2019-05-17T16:38:08.167Z,3.60
2019-05-17T16:40:38.410Z,3.93
2019-05-17T16:43:17.754Z,3.87
2019-05-17T16:45:40.521Z,3.00
2019-05-17T16:48:10.742Z,3.63
2019-05-17T16:50:42.027Z,2.67
2019-05-17T16:53:13.338Z,3.30
2019-05-17T16:55:43.613Z,3.13
2019-05-17T16:58:13.846Z,2.93
2019-05-17T17:00:44.439Z,3.20
2019-05-17T17:03:14.661Z,2.70
2019-05-17T17:05:44.890Z,2.80
2019-05-17T17:08:16.179Z,2.83
2019-05-17T17:10:46.370Z,3.50
2019-05-17T17:13:16.593Z,2.70
2019-05-17T17:15:47.857Z,3.20
2019-05-17T17:18:18.090Z,2.90
2019-05-17T17:20:48.277Z,2.30
2019-05-17T17:23:18.512Z,2.17
2019-05-17T17:25:48.850Z,2.53
2019-05-17T17:28:23.522Z,2.47
2019-05-17T17:30:52.178Z,2.40
2019-05-17T17:33:22.586Z,2.73
2019-05-17T17:35:52.838Z,2.30
2019-05-17T17:38:23.073Z,2.60
2019-05-17T17:40:53.284Z,2.60
2019-05-17T17:43:23.515Z,2.77
2019-05-17T17:45:53.765Z,2.50
2019-05-17T17:48:23.987Z,2.10
2019-05-17T17:50:54.205Z,2.20
2019-05-17T17:53:24.572Z,2.43
2019-05-17T17:55:54.807Z,2.70
2019-05-17T17:58:25.001Z,2.07
2019-05-17T18:00:55.303Z,2.23
2019-05-17T18:03:25.503Z,2.27
2019-05-17T18:05:55.899Z,2.57
2019-05-17T18:08:26.100Z,2.67
2019-05-17T18:10:56.399Z,2.30
2019-05-17T18:13:26.615Z,2.03
2019-05-17T18:15:56.852Z,2.10
2019-05-17T18:18:27.068Z,2.00
2019-05-17T18:20:57.300Z,1.87
2019-05-17T18:23:27.541Z,2.40
2019-05-17T18:25:57.759Z,2.27
2019-05-17T18:28:27.958Z,2.43
2019-05-17T18:30:58.275Z,2.00
2019-05-17T18:33:28.544Z,1.70
2019-05-17T18:35:58.786Z,1.43
2019-05-17T18:38:28.983Z,1.80
2019-05-17T18:40:59.218Z,2.13
2019-05-17T18:43:29.406Z,1.93
2019-05-17T18:45:59.629Z,2.37
2019-05-17T18:48:29.841Z,2.60
2019-05-17T18:51:00.068Z,1.53
2019-05-17T18:53:30.254Z,3.50
2019-05-17T18:56:00.564Z,2.17
2019-05-17T18:58:30.778Z,2.30
2019-05-17T19:01:00.986Z,2.20
2019-05-17T19:03:31.265Z,2.00
2019-05-17T19:06:01.499Z,1.90
2019-05-17T19:08:31.774Z,1.60
2019-05-17T19:11:02.007Z,4.47
2019-05-17T19:13:32.370Z,2.90
2019-05-17T19:16:02.607Z,2.33
2019-05-17T19:18:32.804Z,1.87
2019-05-17T19:21:03.023Z,2.23
2019-05-17T19:23:33.236Z,2.40
2019-05-17T19:26:03.920Z,2.37
2019-05-17T19:28:34.132Z,1.80
2019-05-17T19:31:04.347Z,1.40
2019-05-17T19:33:34.560Z,1.57
2019-05-17T19:36:04.793Z,1.50
2019-05-17T19:38:35.053Z,1.20
2019-05-17T19:41:05.274Z,1.33
2019-05-17T19:43:35.544Z,1.40
2019-05-17T19:46:05.831Z,1.20
2019-05-17T19:48:36.103Z,1.43
2019-05-17T19:51:06.399Z,1.37
2019-05-17T19:53:36.649Z,1.10
2019-05-17T19:56:06.883Z,1.10
2019-05-17T19:58:37.135Z,1.07
2019-05-17T20:01:07.371Z,1.13
2019-05-17T20:03:37.678Z,1.10
2019-05-17T20:06:08.044Z,1.23
2019-05-17T20:08:38.268Z,1.00
2019-05-17T20:11:08.489Z,1.30
2019-05-17T20:13:38.753Z,1.10
2019-05-17T20:16:09.045Z,1.10
2019-05-17T20:18:39.246Z,1.00
2019-05-17T20:21:09.641Z,1.30
2019-05-17T20:23:39.937Z,1.20
2019-05-17T20:26:10.504Z,1.23
2019-05-17T20:28:40.719Z,1.03
2019-05-17T20:31:11.014Z,1.40
2019-05-17T20:33:41.251Z,1.10
2019-05-17T20:36:11.503Z,1.07
2019-05-17T20:38:41.736Z,1.30
2019-05-17T20:41:11.950Z,1.20
2019-05-17T20:43:42.272Z,1.20
2019-05-17T20:46:12.671Z,1.13
2019-05-17T20:48:43.024Z,1.20
2019-05-17T20:51:13.253Z,1.30
2019-05-17T20:53:43.477Z,1.83
2019-05-17T20:56:13.688Z,1.60
2019-05-17T20:58:43.913Z,1.50
2019-05-17T21:01:14.207Z,1.10
2019-05-17T21:03:44.434Z,1.00
2019-05-17T21:06:14.738Z,1.30
2019-05-17T21:08:46.372Z,1.30
2019-05-17T21:11:17.014Z,1.17
2019-05-17T21:13:47.336Z,1.10
2019-05-17T21:16:17.524Z,1.07
2019-05-17T21:18:47.730Z,1.00
2019-05-17T21:21:17.922Z,1.00
2019-05-17T21:23:48.197Z,0.90
2019-05-17T21:26:18.466Z,1.10
2019-05-17T21:28:48.767Z,1.30
2019-05-17T21:31:19.042Z,1.23
2019-05-17T21:33:49.320Z,0.90
2019-05-17T21:36:19.556Z,0.90
2019-05-17T21:38:50.643Z,1.10
2019-05-17T21:41:30.798Z,1.00
2019-05-17T21:44:01.946Z,1.20
2019-05-17T21:46:37.184Z,1.10
2019-05-17T21:49:09.867Z,0.90
2019-05-17T21:51:42.542Z,1.10
2019-05-17T21:54:17.076Z,1.00
2019-05-17T21:56:51.181Z,0.80
2019-05-17T21:59:22.431Z,1.07
2019-05-17T22:02:02.485Z,1.10
2019-05-17T22:04:40.991Z,1.13
2019-05-17T22:07:15.516Z,1.10
2019-05-17T22:09:45.849Z,1.00
2019-05-17T22:12:16.140Z,0.97
2019-05-17T22:14:46.350Z,0.90
2019-05-17T22:17:16.574Z,1.00
2019-05-17T22:19:46.808Z,1.00
2019-05-17T22:22:17.099Z,0.73
2019-05-17T22:24:47.323Z,0.90
2019-05-17T22:27:17.546Z,1.10
2019-05-17T22:29:47.767Z,0.90
2019-05-17T22:32:17.984Z,0.90
2019-05-17T22:34:48.219Z,0.90
2019-05-17T22:37:18.417Z,1.00
2019-05-17T22:39:48.658Z,0.80
2019-05-17T22:42:18.875Z,0.90
2019-05-17T22:44:50.232Z,0.73
2019-05-17T22:47:20.634Z,1.00
2019-05-17T22:49:52.032Z,0.90
2019-05-17T22:52:22.247Z,0.90
2019-05-17T22:54:52.473Z,0.60
2019-05-17T22:57:22.712Z,0.70
2019-05-17T22:59:52.959Z,0.90
2019-05-17T23:02:23.227Z,0.63
2019-05-17T23:04:53.501Z,0.70
2019-05-17T23:07:23.861Z,0.70
2019-05-17T23:09:54.062Z,0.80
2019-05-17T23:12:24.284Z,0.77
2019-05-17T23:14:54.481Z,0.60
2019-05-17T23:17:24.723Z,0.60
2019-05-17T23:19:54.997Z,0.90
2019-05-17T23:22:25.217Z,0.77
2019-05-17T23:24:55.423Z,1.00
2019-05-17T23:27:25.653Z,1.50
2019-05-17T23:29:55.852Z,2.03
2019-05-17T23:32:26.141Z,1.70
2019-05-17T23:34:56.339Z,1.87
2019-05-17T23:37:27.648Z,1.60
2019-05-17T23:39:57.854Z,1.40
2019-05-17T23:42:28.076Z,1.33
2019-05-17T23:44:58.295Z,1.10
2019-05-17T23:47:28.717Z,1.30
2019-05-17T23:49:58.919Z,1.43
2019-05-17T23:52:29.141Z,1.40
2019-05-17T23:54:59.336Z,1.40
2019-05-17T23:57:29.614Z,1.47
2019-05-17T23:59:59.871Z,1.40
